Becket Corners, Massachusetts
Current Conditions -  °F | °C
As of 4:05 PM on Friday 28 Nov 2014 (Local Time) from KPSF Reporting Station
Overcast Overcast  
Wind Chill: 11°   Ceiling: 3800
Heat Index: 24°   Visibility: 10mi
Dew Point: 15°   Wind: 15mph
Humidity: 69%   Direction: 280°W
Pressure: 30.09"   Gusts: 21mph
Location:  42.3623°N, 73.1505°W
Report Text: KPSF 282105Z AUTO 28013G18KT 10SM FEW024 SCT030 OVC038 M04/M09 A3009 RMK AO2 T10441094
Loading
Personal Weather Stations






























Interactive Weather Map New forecast layout! Learn more

10-Day Weather Forecast

Advertisements
Track Severe Weather on mobile